طريف, السعودية

04:29 PM AST on سبتهبر 17, 2014 (GMT +0300)
Turaif | Change Station
CLOSE
Current Station
Airport
Location: Turaif,
Elevation: 2795 ft
Nearby Weather Stations

Elev 2795 ft 31.69 °N, 38.73 °E | Updated 29 minutes ago

Clear
صافية
88 °F
Feels Like 88 °F
N
7
ريح متغير ريح from WNW

هذا اليوم
High -- | Low -- °F
--% Chance of Precip.
Yesterday
High -- | Low -- °F
Precip. -- في
6:10 AM 6:28 PM
الهلال الأخير, 36% visible
الضغط 29.89 في
وضوح الرؤية -9999.0 أميال
سحابات
نقطة الندى 46 °F
الرطوبة 24%
Rainfall 0.00 في
عمق الثلج Not available.
الأشعة فوق البنفسجية Not available.
Pollen Not available.
جودة الهواء Not available.
Flu Activity Not available.
METAR OETR 171300Z 30006KT CAVOK 31/08 Q1012

More Conditions Fewer Conditions

الضغط 29.89 في
وضوح الرؤية -9999.0 أميال
سحابات
نقطة الندى 46 °F
الرطوبة 24%
Rainfall 0.00 في
عمق الثلج Not available.
الأشعة فوق البنفسجية Not available.
Pollen Not available.
جودة الهواء Not available.
Flu Activity Not available.
METAR OETR 171300Z 30006KT CAVOK 31/08 Q1012

More Conditions Fewer Conditions

10-Day Weather Forecast

Almanac

علم الفلك

Sep. 17, 2014 Rise Set
Actual Time 6:10 AM AST 6:28 PM AST
Civil Twilight 5:45 AM AST 6:53 PM AST
Nautical Twilight 5:17 AM AST 7:21 PM AST
Astronomical Twilight 4:48 AM AST 7:50 PM AST
قمر 12:07 AM AST 2:07 PM AST
Length Of Visible Light 13h 07m
طول الیوم
12h 18m
Tomorrow will be 1m 55s shorter.
الهلال الأخير, 36% of the Moon is Illuminated
هذا اليوم
الهلال الأخير
Sep 24
New
Oct 1
الربع الاول
Oct 8
بدر
Oct 15
الربع الآخر

Yesterday's Extremes

Country Highs Country Lows

Community

WunderPhotos

Upload Photos

1,754,029 photos uploaded!

Nearby

جودة الهواء

Not available.

عمق الثلج

Not available.

Earthquake Activity

City Distance Mag. Time & Date
No recent earthquake activity has been reported nearby.
Minimum magnitude displayed is 2.5.

Coastal Water Temperatures

مكان درجات الحرارة
No Stations Reporting

Nearby Weather Stations